Terminal Aerodrome Forecast
Issued by NWS

Home | Current Version | Previous Version | Text Only | Print | Product List | Glossary On
Versions: 1 2 3 4 5 6 7 8 9 10 11 12 13 14 15 16 17 18 19
000
FTUS42 KTBW 052316 AAB
TAFPGD
TAF AMD
KPGD 052316Z 0523/0618 VRB06KT P6SM VCTS SCT040CB BKN250
      TEMPO 0523/0524 VRB15G25KT 6SM TSRA SCT025 BKN040CB
     FM060000 VRB03KT P6SM FEW040 SCT150 BKN250
     FM061400 15005KT P6SM SCT035=

USA.gov is the U.S. government's official web portal to all federal, state and local government web resources and services.